sensor_id;sensor_type;location;lat;lon;timestamp;pressure;altitude;pressure_sealevel;temperature;humidity
5651;BME280;40241;52.684;9.758;2023-11-22T00:01:26;102491.09;;;1.64;64.23
5651;BME280;40241;52.684;9.758;2023-11-22T00:03:52;102494.25;;;1.62;63.89
5651;BME280;40241;52.684;9.758;2023-11-22T00:06:17;102488.44;;;1.60;63.68
5651;BME280;40241;52.684;9.758;2023-11-22T00:08:46;102490.44;;;1.56;64.32
5651;BME280;40241;52.684;9.758;2023-11-22T00:11:12;102495.91;;;1.56;63.74
5651;BME280;40241;52.684;9.758;2023-11-22T00:13:38;102501.75;;;1.55;63.99
5651;BME280;40241;52.684;9.758;2023-11-22T00:16:04;102504.09;;;1.53;63.88
5651;BME280;40241;52.684;9.758;2023-11-22T00:18:29;102512.34;;;1.49;63.53
5651;BME280;40241;52.684;9.758;2023-11-22T00:20:55;102519.38;;;1.47;64.08
5651;BME280;40241;52.684;9.758;2023-11-22T00:23:22;102508.09;;;1.45;64.01
5651;BME280;40241;52.684;9.758;2023-11-22T00:25:52;102517.81;;;1.46;64.30
5651;BME280;40241;52.684;9.758;2023-11-22T00:28:18;102523.31;;;1.42;63.71
5651;BME280;40241;52.684;9.758;2023-11-22T00:30:43;102523.00;;;1.37;63.76
5651;BME280;40241;52.684;9.758;2023-11-22T00:33:09;102519.53;;;1.33;63.75
5651;BME280;40241;52.684;9.758;2023-11-22T00:35:34;102512.25;;;1.23;63.85
5651;BME280;40241;52.684;9.758;2023-11-22T00:38:00;102509.16;;;1.21;63.93
5651;BME280;40241;52.684;9.758;2023-11-22T00:40:26;102509.56;;;1.19;64.09
5651;BME280;40241;52.684;9.758;2023-11-22T00:42:51;102508.78;;;1.19;63.89
5651;BME280;40241;52.684;9.758;2023-11-22T00:45:16;102514.63;;;1.21;64.35
5651;BME280;40241;52.684;9.758;2023-11-22T00:47:43;102513.84;;;1.20;64.10
5651;BME280;40241;52.684;9.758;2023-11-22T00:50:09;102526.31;;;1.18;63.91
5651;BME280;40241;52.684;9.758;2023-11-22T00:52:34;102524.81;;;1.13;64.03
5651;BME280;40241;52.684;9.758;2023-11-22T00:54:59;102527.59;;;1.10;63.84
5651;BME280;40241;52.684;9.758;2023-11-22T00:57:25;102525.63;;;1.10;64.03
5651;BME280;40241;52.684;9.758;2023-11-22T00:59:52;102533.44;;;1.08;64.05
5651;BME280;40241;52.684;9.758;2023-11-22T01:02:19;102554.16;;;1.02;63.88
5651;BME280;40241;52.684;9.758;2023-11-22T01:04:44;102552.59;;;1.01;64.05
5651;BME280;40241;52.684;9.758;2023-11-22T01:07:09;102560.03;;;0.93;64.02
5651;BME280;40241;52.684;9.758;2023-11-22T01:09:35;102565.94;;;0.88;63.95
5651;BME280;40241;52.684;9.758;2023-11-22T01:12:01;102574.13;;;0.85;64.01
5651;BME280;40241;52.684;9.758;2023-11-22T01:14:27;102582.34;;;0.81;63.88
5651;BME280;40241;52.684;9.758;2023-11-22T01:16:53;102588.59;;;0.78;64.23
5651;BME280;40241;52.684;9.758;2023-11-22T01:19:19;102585.50;;;0.76;64.37
5651;BME280;40241;52.684;9.758;2023-11-22T01:21:45;102585.13;;;0.74;64.08
5651;BME280;40241;52.684;9.758;2023-11-22T01:24:10;102586.31;;;0.70;64.16
5651;BME280;40241;52.684;9.758;2023-11-22T01:26:36;102582.91;;;0.62;64.00
5651;BME280;40241;52.684;9.758;2023-11-22T01:29:02;102584.50;;;0.56;64.09
5651;BME280;40241;52.684;9.758;2023-11-22T01:31:28;102579.84;;;0.53;64.08
5651;BME280;40241;52.684;9.758;2023-11-22T01:33:54;102575.97;;;0.51;64.20
5651;BME280;40241;52.684;9.758;2023-11-22T01:36:19;102574.44;;;0.50;64.46
5651;BME280;40241;52.684;9.758;2023-11-22T01:38:45;102578.69;;;0.51;64.35
5651;BME280;40241;52.684;9.758;2023-11-22T01:41:12;102572.09;;;0.52;64.32
5651;BME280;40241;52.684;9.758;2023-11-22T01:43:40;102579.47;;;0.51;64.46
5651;BME280;40241;52.684;9.758;2023-11-22T01:46:10;102575.19;;;0.50;64.53
5651;BME280;40241;52.684;9.758;2023-11-22T01:48:39;102565.09;;;0.47;64.25
5651;BME280;40241;52.684;9.758;2023-11-22T01:51:05;102563.53;;;0.46;64.69
5651;BME280;40241;52.684;9.758;2023-11-22T01:53:32;102566.69;;;0.45;64.51
5651;BME280;40241;52.684;9.758;2023-11-22T01:55:57;102572.13;;;0.45;64.47
5651;BME280;40241;52.684;9.758;2023-11-22T01:58:23;102574.06;;;0.44;64.48
5651;BME280;40241;52.684;9.758;2023-11-22T02:00:49;102579.13;;;0.42;64.53
5651;BME280;40241;52.684;9.758;2023-11-22T02:03:15;102575.25;;;0.43;64.79
5651;BME280;40241;52.684;9.758;2023-11-22T02:05:42;102588.47;;;0.41;64.60
5651;BME280;40241;52.684;9.758;2023-11-22T02:08:09;102584.63;;;0.39;64.39
5651;BME280;40241;52.684;9.758;2023-11-22T02:10:34;102594.72;;;0.38;64.45
5651;BME280;40241;52.684;9.758;2023-11-22T02:13:02;102598.59;;;0.37;64.48
5651;BME280;40241;52.684;9.758;2023-11-22T02:15:30;102598.97;;;0.39;64.62
5651;BME280;40241;52.684;9.758;2023-11-22T02:17:55;102603.69;;;0.39;64.51
5651;BME280;40241;52.684;9.758;2023-11-22T02:20:22;102604.09;;;0.34;64.33
5651;BME280;40241;52.684;9.758;2023-11-22T02:22:48;102605.28;;;0.29;64.40
5651;BME280;40241;52.684;9.758;2023-11-22T02:25:13;102616.19;;;0.25;64.71
5651;BME280;40241;52.684;9.758;2023-11-22T02:27:40;102594.41;;;0.25;64.68
5651;BME280;40241;52.684;9.758;2023-11-22T02:30:06;102599.47;;;0.27;64.82
5651;BME280;40241;52.684;9.758;2023-11-22T02:32:32;102590.50;;;0.26;64.62
5651;BME280;40241;52.684;9.758;2023-11-22T02:34:58;102585.09;;;0.23;64.52
5651;BME280;40241;52.684;9.758;2023-11-22T02:37:24;102577.72;;;0.20;64.87
5651;BME280;40241;52.684;9.758;2023-11-22T02:40:19;102587.84;;;0.16;64.95
5651;BME280;40241;52.684;9.758;2023-11-22T02:42:52;102586.72;;;0.10;65.06
5651;BME280;40241;52.684;9.758;2023-11-22T02:45:20;102595.63;;;0.10;64.88
5651;BME280;40241;52.684;9.758;2023-11-22T02:47:48;102606.94;;;0.12;64.94
5651;BME280;40241;52.684;9.758;2023-11-22T02:50:15;102611.19;;;0.13;64.99
5651;BME280;40241;52.684;9.758;2023-11-22T02:52:40;102625.56;;;0.14;64.96
5651;BME280;40241;52.684;9.758;2023-11-22T02:55:06;102643.06;;;0.16;65.08
5651;BME280;40241;52.684;9.758;2023-11-22T02:57:32;102629.09;;;0.14;64.71
5651;BME280;40241;52.684;9.758;2023-11-22T02:59:58;102641.13;;;0.13;64.82
5651;BME280;40241;52.684;9.758;2023-11-22T03:02:23;102643.06;;;0.13;64.88
5651;BME280;40241;52.684;9.758;2023-11-22T03:04:49;102643.44;;;0.15;64.85
5651;BME280;40241;52.684;9.758;2023-11-22T03:07:15;102655.88;;;0.19;65.08
5651;BME280;40241;52.684;9.758;2023-11-22T03:09:40;102648.09;;;0.25;64.87
5651;BME280;40241;52.684;9.758;2023-11-22T03:12:06;102654.66;;;0.31;64.82
5651;BME280;40241;52.684;9.758;2023-11-22T03:14:34;102656.59;;;0.34;64.97
5651;BME280;40241;52.684;9.758;2023-11-22T03:17:00;102654.25;;;0.36;64.92
5651;BME280;40241;52.684;9.758;2023-11-22T03:19:25;102661.59;;;0.39;64.99
5651;BME280;40241;52.684;9.758;2023-11-22T03:21:51;102653.81;;;0.45;64.80
5651;BME280;40241;52.684;9.758;2023-11-22T03:24:16;102656.91;;;0.47;65.19
5651;BME280;40241;52.684;9.758;2023-11-22T03:26:41;102660.00;;;0.49;65.08
5651;BME280;40241;52.684;9.758;2023-11-22T03:29:07;102654.91;;;0.54;64.92
5651;BME280;40241;52.684;9.758;2023-11-22T03:31:32;102666.13;;;0.63;64.86
5651;BME280;40241;52.684;9.758;2023-11-22T03:33:57;102666.13;;;0.67;64.85
5651;BME280;40241;52.684;9.758;2023-11-22T03:36:23;102664.94;;;0.68;64.89
5651;BME280;40241;52.684;9.758;2023-11-22T03:38:49;102666.09;;;0.70;65.24
5651;BME280;40241;52.684;9.758;2023-11-22T03:41:15;102662.56;;;0.77;64.90
5651;BME280;40241;52.684;9.758;2023-11-22T03:43:42;102670.69;;;0.80;65.06
5651;BME280;40241;52.684;9.758;2023-11-22T03:46:07;102674.63;;;0.79;64.85
5651;BME280;40241;52.684;9.758;2023-11-22T03:48:33;102681.22;;;0.78;65.01
5651;BME280;40241;52.684;9.758;2023-11-22T03:50:58;102683.56;;;0.80;65.18
5651;BME280;40241;52.684;9.758;2023-11-22T03:53:23;102690.16;;;0.82;65.17
5651;BME280;40241;52.684;9.758;2023-11-22T03:55:49;102685.47;;;0.86;65.10
5651;BME280;40241;52.684;9.758;2023-11-22T03:58:15;102684.66;;;0.89;64.89
5651;BME280;40241;52.684;9.758;2023-11-22T04:00:41;102689.34;;;0.89;64.95
5651;BME280;40241;52.684;9.758;2023-11-22T04:03:06;102686.63;;;0.89;65.15
5651;BME280;40241;52.684;9.758;2023-11-22T04:05:32;102682.72;;;0.90;64.94
5651;BME280;40241;52.684;9.758;2023-11-22T04:07:57;102695.94;;;0.91;65.17
5651;BME280;40241;52.684;9.758;2023-11-22T04:10:23;102689.31;;;0.92;65.24
5651;BME280;40241;52.684;9.758;2023-11-22T04:12:49;102686.19;;;0.94;65.21
5651;BME280;40241;52.684;9.758;2023-11-22T04:15:14;102686.19;;;0.94;65.23
5651;BME280;40241;52.684;9.758;2023-11-22T04:17:40;102706.41;;;0.96;64.94
5651;BME280;40241;52.684;9.758;2023-11-22T04:20:25;102706.44;;;0.93;65.27
5651;BME280;40241;52.684;9.758;2023-11-22T04:22:50;102709.53;;;0.95;65.19
5651;BME280;40241;52.684;9.758;2023-11-22T04:25:16;102717.31;;;0.96;65.17
5651;BME280;40241;52.684;9.758;2023-11-22T04:27:41;102717.31;;;0.96;65.22
5651;BME280;40241;52.684;9.758;2023-11-22T04:30:08;102724.34;;;0.94;64.85
5651;BME280;40241;52.684;9.758;2023-11-22T04:32:35;102727.47;;;0.92;65.26
5651;BME280;40241;52.684;9.758;2023-11-22T04:35:02;102726.31;;;0.90;64.70
5651;BME280;40241;52.684;9.758;2023-11-22T04:37:29;102725.94;;;0.88;64.87
5651;BME280;40241;52.684;9.758;2023-11-22T04:39:58;102728.66;;;0.88;65.19
5651;BME280;40241;52.684;9.758;2023-11-22T04:42:23;102720.53;;;0.84;65.03
5651;BME280;40241;52.684;9.758;2023-11-22T04:44:48;102731.03;;;0.82;65.06
5651;BME280;40241;52.684;9.758;2023-11-22T04:47:14;102725.19;;;0.80;64.90
5651;BME280;40241;52.684;9.758;2023-11-22T04:49:39;102720.16;;;0.82;65.21
5651;BME280;40241;52.684;9.758;2023-11-22T04:52:04;102721.69;;;0.83;64.84
5651;BME280;40241;52.684;9.758;2023-11-22T04:54:30;102711.56;;;0.84;64.95
5651;BME280;40241;52.684;9.758;2023-11-22T04:56:57;102709.63;;;0.81;64.67
5651;BME280;40241;52.684;9.758;2023-11-22T04:59:22;102705.75;;;0.78;64.76
5651;BME280;40241;52.684;9.758;2023-11-22T05:01:47;102707.34;;;0.76;64.78
5651;BME280;40241;52.684;9.758;2023-11-22T05:04:14;102703.09;;;0.71;64.72
5651;BME280;40241;52.684;9.758;2023-11-22T05:06:39;102706.59;;;0.68;64.69
5651;BME280;40241;52.684;9.758;2023-11-22T05:09:04;102714.00;;;0.64;64.70
5651;BME280;40241;52.684;9.758;2023-11-22T05:11:31;102706.22;;;0.66;64.66
5651;BME280;40241;52.684;9.758;2023-11-22T05:13:56;102705.06;;;0.64;64.70
5651;BME280;40241;52.684;9.758;2023-11-22T05:16:21;102724.94;;;0.57;64.67
5651;BME280;40241;52.684;9.758;2023-11-22T05:18:49;102722.25;;;0.54;64.72
5651;BME280;40241;52.684;9.758;2023-11-22T05:21:14;102719.88;;;0.52;64.89
5651;BME280;40241;52.684;9.758;2023-11-22T05:23:39;102714.84;;;0.51;64.84
5651;BME280;40241;52.684;9.758;2023-11-22T05:26:05;102715.25;;;0.49;64.65
5651;BME280;40241;52.684;9.758;2023-11-22T05:28:31;102725.78;;;0.47;64.38
5651;BME280;40241;52.684;9.758;2023-11-22T05:30:56;102730.84;;;0.45;64.56
5651;BME280;40241;52.684;9.758;2023-11-22T05:33:21;102733.19;;;0.43;64.49
5651;BME280;40241;52.684;9.758;2023-11-22T05:35:47;102733.59;;;0.38;64.59
5651;BME280;40241;52.684;9.758;2023-11-22T05:38:13;102734.75;;;0.37;64.61
5651;BME280;40241;52.684;9.758;2023-11-22T05:40:39;102742.16;;;0.37;64.56
5651;BME280;40241;52.684;9.758;2023-11-22T05:43:04;102741.75;;;0.35;64.60
5651;BME280;40241;52.684;9.758;2023-11-22T05:45:30;102732.44;;;0.32;64.59
5651;BME280;40241;52.684;9.758;2023-11-22T05:47:55;102745.66;;;0.34;64.60
5651;BME280;40241;52.684;9.758;2023-11-22T05:50:20;102747.22;;;0.31;64.22
5651;BME280;40241;52.684;9.758;2023-11-22T05:52:46;102757.75;;;0.25;64.24
5651;BME280;40241;52.684;9.758;2023-11-22T05:55:11;102760.47;;;0.22;64.58
5651;BME280;40241;52.684;9.758;2023-11-22T05:57:39;102784.19;;;0.21;64.52
5651;BME280;40241;52.684;9.758;2023-11-22T06:00:07;102786.53;;;0.16;64.41
5651;BME280;40241;52.684;9.758;2023-11-22T06:02:33;102780.34;;;0.12;64.31
5651;BME280;40241;52.684;9.758;2023-11-22T06:04:58;102788.88;;;0.10;64.59
5651;BME280;40241;52.684;9.758;2023-11-22T06:07:23;102782.28;;;0.11;64.82
5651;BME280;40241;52.684;9.758;2023-11-22T06:09:49;102781.88;;;0.13;64.63
5651;BME280;40241;52.684;9.758;2023-11-22T06:12:14;102778.78;;;0.14;64.80
5651;BME280;40241;52.684;9.758;2023-11-22T06:14:39;102783.81;;;0.16;65.05
5651;BME280;40241;52.684;9.758;2023-11-22T06:17:05;102773.72;;;0.16;64.57
5651;BME280;40241;52.684;9.758;2023-11-22T06:19:30;102778.00;;;0.14;64.60
5651;BME280;40241;52.684;9.758;2023-11-22T06:21:56;102781.13;;;0.12;64.49
5651;BME280;40241;52.684;9.758;2023-11-22T06:24:21;102781.50;;;0.11;64.56
5651;BME280;40241;52.684;9.758;2023-11-22T06:26:47;102779.16;;;0.09;64.38
5651;BME280;40241;52.684;9.758;2023-11-22T06:29:12;102782.28;;;0.08;64.45
5651;BME280;40241;52.684;9.758;2023-11-22T06:31:38;102784.63;;;0.06;64.41
5651;BME280;40241;52.684;9.758;2023-11-22T06:34:03;102774.91;;;0.05;64.27
5651;BME280;40241;52.684;9.758;2023-11-22T06:36:28;102778.00;;;0.07;64.52
5651;BME280;40241;52.684;9.758;2023-11-22T06:38:55;102773.34;;;0.07;64.56
5651;BME280;40241;52.684;9.758;2023-11-22T06:41:20;102762.06;;;0.09;64.46
5651;BME280;40241;52.684;9.758;2023-11-22T06:43:47;102767.50;;;0.12;64.47
5651;BME280;40241;52.684;9.758;2023-11-22T06:46:12;102769.81;;;0.14;64.69
5651;BME280;40241;52.684;9.758;2023-11-22T06:48:38;102764.75;;;0.16;64.44
5651;BME280;40241;52.684;9.758;2023-11-22T06:51:03;102757.38;;;0.20;64.21
5651;BME280;40241;52.684;9.758;2023-11-22T06:53:28;102769.81;;;0.21;64.56
5651;BME280;40241;52.684;9.758;2023-11-22T06:55:54;102762.81;;;0.20;64.43
5651;BME280;40241;52.684;9.758;2023-11-22T06:58:19;102770.97;;;0.20;64.40
5651;BME280;40241;52.684;9.758;2023-11-22T07:00:44;102776.03;;;0.18;64.26
5651;BME280;40241;52.684;9.758;2023-11-22T07:03:10;102778.78;;;0.14;64.31
5651;BME280;40241;52.684;9.758;2023-11-22T07:05:36;102771.38;;;0.15;64.41
5651;BME280;40241;52.684;9.758;2023-11-22T07:08:02;102773.72;;;0.16;64.38
5651;BME280;40241;52.684;9.758;2023-11-22T07:10:28;102766.72;;;0.19;64.53
5651;BME280;40241;52.684;9.758;2023-11-22T07:12:53;102762.03;;;0.23;64.43
5651;BME280;40241;52.684;9.758;2023-11-22T07:15:19;102767.44;;;0.26;64.41
5651;BME280;40241;52.684;9.758;2023-11-22T07:17:44;102772.13;;;0.29;64.56
5651;BME280;40241;52.684;9.758;2023-11-22T07:20:10;102770.16;;;0.34;64.60
5651;BME280;40241;52.684;9.758;2023-11-22T07:22:41;102762.38;;;0.36;64.43
5651;BME280;40241;52.684;9.758;2023-11-22T07:25:08;102758.09;;;0.38;64.66
5651;BME280;40241;52.684;9.758;2023-11-22T07:27:43;102754.97;;;0.40;64.25
5651;BME280;40241;52.684;9.758;2023-11-22T07:30:09;102756.53;;;0.37;64.13
5651;BME280;40241;52.684;9.758;2023-11-22T07:32:34;102750.72;;;0.32;63.97
5651;BME280;40241;52.684;9.758;2023-11-22T07:34:59;102754.59;;;0.30;64.21
5651;BME280;40241;52.684;9.758;2023-11-22T07:37:28;102748.78;;;0.28;64.00
5651;BME280;40241;52.684;9.758;2023-11-22T07:39:53;102747.25;;;0.27;64.03
5651;BME280;40241;52.684;9.758;2023-11-22T07:42:19;102735.94;;;0.29;64.31
5651;BME280;40241;52.684;9.758;2023-11-22T07:44:44;102746.03;;;0.36;64.62
5651;BME280;40241;52.684;9.758;2023-11-22T07:47:09;102750.31;;;0.40;64.07
5651;BME280;40241;52.684;9.758;2023-11-22T07:49:38;102763.88;;;0.44;64.36
5651;BME280;40241;52.684;9.758;2023-11-22T07:52:04;102767.38;;;0.48;64.50
5651;BME280;40241;52.684;9.758;2023-11-22T07:54:31;102763.47;;;0.52;64.32
5651;BME280;40241;52.684;9.758;2023-11-22T07:56:56;102763.47;;;0.56;64.36
5651;BME280;40241;52.684;9.758;2023-11-22T07:59:22;102775.50;;;0.62;64.41
5651;BME280;40241;52.684;9.758;2023-11-22T08:01:47;102763.41;;;0.66;64.43
5651;BME280;40241;52.684;9.758;2023-11-22T08:04:14;102772.75;;;0.69;64.37
5651;BME280;40241;52.684;9.758;2023-11-22T08:06:39;102793.72;;;0.72;64.34
5651;BME280;40241;52.684;9.758;2023-11-22T08:09:05;102806.56;;;0.75;64.33
5651;BME280;40241;52.684;9.758;2023-11-22T08:11:30;102807.75;;;0.77;64.15
5651;BME280;40241;52.684;9.758;2023-11-22T08:13:57;102809.66;;;0.80;64.27
5651;BME280;40241;52.684;9.758;2023-11-22T08:16:24;102817.03;;;0.83;64.44
5651;BME280;40241;52.684;9.758;2023-11-22T08:18:50;102831.47;;;0.84;64.37
5651;BME280;40241;52.684;9.758;2023-11-22T08:21:16;102833.41;;;0.83;64.24
5651;BME280;40241;52.684;9.758;2023-11-22T08:23:41;102834.16;;;0.87;64.40
5651;BME280;40241;52.684;9.758;2023-11-22T08:26:07;102830.66;;;0.90;64.16
5651;BME280;40241;52.684;9.758;2023-11-22T08:28:34;102831.41;;;0.94;64.57
5651;BME280;40241;52.684;9.758;2023-11-22T08:30:59;102841.50;;;1.01;64.26
5651;BME280;40241;52.684;9.758;2023-11-22T08:33:26;102848.09;;;1.00;64.22
5651;BME280;40241;52.684;9.758;2023-11-22T08:35:51;102846.97;;;0.97;64.52
5651;BME280;40241;52.684;9.758;2023-11-22T08:38:24;102840.72;;;1.00;64.47
5651;BME280;40241;52.684;9.758;2023-11-22T08:40:49;102825.91;;;1.09;64.61
5651;BME280;40241;52.684;9.758;2023-11-22T08:43:15;102822.75;;;1.10;64.33
5651;BME280;40241;52.684;9.758;2023-11-22T08:45:41;102809.09;;;1.14;64.63
5651;BME280;40241;52.684;9.758;2023-11-22T08:48:09;102805.19;;;1.22;64.41
5651;BME280;40241;52.684;9.758;2023-11-22T08:50:34;102814.47;;;1.28;64.47
5651;BME280;40241;52.684;9.758;2023-11-22T08:53:00;102813.63;;;1.38;64.73
5651;BME280;40241;52.684;9.758;2023-11-22T08:55:25;102811.63;;;1.45;64.83
5651;BME280;40241;52.684;9.758;2023-11-22T08:57:51;102800.28;;;1.50;64.68
5651;BME280;40241;52.684;9.758;2023-11-22T09:00:17;102815.03;;;1.60;64.73
5651;BME280;40241;52.684;9.758;2023-11-22T09:02:51;102826.69;;;1.64;64.55
5651;BME280;40241;52.684;9.758;2023-11-22T09:05:16;102838.34;;;1.68;64.56
5651;BME280;40241;52.684;9.758;2023-11-22T09:07:42;102840.69;;;1.69;64.57
5651;BME280;40241;52.684;9.758;2023-11-22T09:10:10;102831.31;;;1.70;64.60
5651;BME280;40241;52.684;9.758;2023-11-22T09:12:36;102842.19;;;1.77;64.63
5651;BME280;40241;52.684;9.758;2023-11-22T09:15:05;102839.78;;;1.83;64.38
5651;BME280;40241;52.684;9.758;2023-11-22T09:17:33;102842.88;;;1.89;64.55
5651;BME280;40241;52.684;9.758;2023-11-22T09:19:59;102848.66;;;1.94;64.94
5651;BME280;40241;52.684;9.758;2023-11-22T09:22:25;102845.50;;;1.99;64.97
5651;BME280;40241;52.684;9.758;2023-11-22T09:24:51;102844.28;;;2.04;64.60
5651;BME280;40241;52.684;9.758;2023-11-22T09:27:17;102831.00;;;2.06;64.55
5651;BME280;40241;52.684;9.758;2023-11-22T09:29:43;102832.97;;;2.05;64.81
5651;BME280;40241;52.684;9.758;2023-11-22T09:32:09;102823.97;;;2.08;64.59
5651;BME280;40241;52.684;9.758;2023-11-22T09:34:35;102828.63;;;2.11;64.39
5651;BME280;40241;52.684;9.758;2023-11-22T09:37:01;102825.91;;;2.11;64.45
5651;BME280;40241;52.684;9.758;2023-11-22T09:39:26;102829.00;;;2.13;64.14
5651;BME280;40241;52.684;9.758;2023-11-22T09:41:52;102812.63;;;2.13;64.32
5651;BME280;40241;52.684;9.758;2023-11-22T09:44:18;102819.97;;;2.16;64.35
5651;BME280;40241;52.684;9.758;2023-11-22T09:46:44;102821.91;;;2.19;64.42
5651;BME280;40241;52.684;9.758;2023-11-22T09:49:15;102810.94;;;2.26;64.45
5651;BME280;40241;52.684;9.758;2023-11-22T09:51:47;102822.94;;;2.32;64.58
5651;BME280;40241;52.684;9.758;2023-11-22T09:54:13;102819.41;;;2.35;64.79
5651;BME280;40241;52.684;9.758;2023-11-22T09:56:40;102830.69;;;2.41;64.76
5651;BME280;40241;52.684;9.758;2023-11-22T09:59:07;102836.91;;;2.45;64.70
5651;BME280;40241;52.684;9.758;2023-11-22T10:01:33;102848.56;;;2.49;64.73
5651;BME280;40241;52.684;9.758;2023-11-22T10:04:04;102841.88;;;2.53;64.45
5651;BME280;40241;52.684;9.758;2023-11-22T10:06:31;102838.69;;;2.59;64.64
5651;BME280;40241;52.684;9.758;2023-11-22T10:09:02;102853.16;;;2.59;64.47
5651;BME280;40241;52.684;9.758;2023-11-22T10:11:36;102846.84;;;2.62;64.71
5651;BME280;40241;52.684;9.758;2023-11-22T10:14:04;102851.09;;;2.67;65.11
5651;BME280;40241;52.684;9.758;2023-11-22T10:16:30;102857.66;;;2.73;64.55
5651;BME280;40241;52.684;9.758;2023-11-22T10:18:55;102859.16;;;2.77;64.36
5651;BME280;40241;52.684;9.758;2023-11-22T10:21:27;102855.63;;;2.80;64.25
5651;BME280;40241;52.684;9.758;2023-11-22T10:23:59;102870.81;;;2.85;64.40
5651;BME280;40241;52.684;9.758;2023-11-22T10:26:25;102907.88;;;2.86;64.48
5651;BME280;40241;52.684;9.758;2023-11-22T10:28:56;102863.69;;;2.91;64.68
5651;BME280;40241;52.684;9.758;2023-11-22T10:31:23;102864.06;;;2.93;64.64
5651;BME280;40241;52.684;9.758;2023-11-22T10:33:49;102869.88;;;2.95;64.35
5651;BME280;40241;52.684;9.758;2023-11-22T10:36:15;102864.03;;;2.96;64.26
5651;BME280;40241;52.684;9.758;2023-11-22T10:38:45;102863.97;;;3.00;64.43
5651;BME280;40241;52.684;9.758;2023-11-22T10:41:11;102865.94;;;2.99;64.31
5651;BME280;40241;52.684;9.758;2023-11-22T10:43:38;102863.97;;;3.00;64.38
5651;BME280;40241;52.684;9.758;2023-11-22T10:46:05;102867.44;;;3.04;64.11
5651;BME280;40241;52.684;9.758;2023-11-22T10:48:32;102863.16;;;3.03;64.37
5651;BME280;40241;52.684;9.758;2023-11-22T10:51:01;102861.53;;;3.05;64.59
5651;BME280;40241;52.684;9.758;2023-11-22T10:53:44;102858.41;;;3.07;64.17
5651;BME280;40241;52.684;9.758;2023-11-22T10:56:14;102865.84;;;3.06;64.31
5651;BME280;40241;52.684;9.758;2023-11-22T11:01:15;102826.75;;;3.09;64.26
5651;BME280;40241;52.684;9.758;2023-11-22T11:03:45;102821.22;;;3.13;63.94
5651;BME280;40241;52.684;9.758;2023-11-22T11:06:15;102810.28;;;3.13;64.07
5651;BME280;40241;52.684;9.758;2023-11-22T11:08:41;102803.63;;;3.14;64.03
5651;BME280;40241;52.684;9.758;2023-11-22T11:11:09;102797.31;;;3.17;64.13
5651;BME280;40241;52.684;9.758;2023-11-22T11:13:34;102793.34;;;3.21;64.09
5651;BME280;40241;52.684;9.758;2023-11-22T11:16:00;102805.44;;;3.24;64.31
5651;BME280;40241;52.684;9.758;2023-11-22T11:18:27;102786.63;;;3.26;64.37
5651;BME280;40241;52.684;9.758;2023-11-22T11:20:57;102784.25;;;3.28;64.14
5651;BME280;40241;52.684;9.758;2023-11-22T11:23:27;102792.41;;;3.31;64.07
5651;BME280;40241;52.684;9.758;2023-11-22T11:25:54;102780.34;;;3.29;63.64
5651;BME280;40241;52.684;9.758;2023-11-22T11:28:20;102784.97;;;3.32;63.91
5651;BME280;40241;52.684;9.758;2023-11-22T11:30:50;102772.38;;;3.38;63.65
5651;BME280;40241;52.684;9.758;2023-11-22T11:33:18;102758.59;;;3.45;63.88
5651;BME280;40241;52.684;9.758;2023-11-22T11:35:47;102755.03;;;3.48;63.72
5651;BME280;40241;52.684;9.758;2023-11-22T11:38:14;102753.72;;;3.56;63.79
5651;BME280;40241;52.684;9.758;2023-11-22T11:40:41;102743.06;;;3.62;63.61
5651;BME280;40241;52.684;9.758;2023-11-22T11:43:06;102740.63;;;3.67;63.53
5651;BME280;40241;52.684;9.758;2023-11-22T11:45:44;102731.09;;;3.75;63.29
5651;BME280;40241;52.684;9.758;2023-11-22T11:48:16;102714.53;;;3.82;63.31
5651;BME280;40241;52.684;9.758;2023-11-22T11:50:43;102694.94;;;3.84;63.28
5651;BME280;40241;52.684;9.758;2023-11-22T11:53:11;102689.88;;;3.82;63.06
5651;BME280;40241;52.684;9.758;2023-11-22T11:55:37;102684.84;;;3.81;63.00
5651;BME280;40241;52.684;9.758;2023-11-22T11:58:06;102666.09;;;3.79;62.89
5651;BME280;40241;52.684;9.758;2023-11-22T12:00:35;102653.59;;;3.78;62.92
5651;BME280;40241;52.684;9.758;2023-11-22T12:03:00;102665.25;;;3.82;63.01
5651;BME280;40241;52.684;9.758;2023-11-22T12:05:26;102671.78;;;3.88;63.05
5651;BME280;40241;52.684;9.758;2023-11-22T12:07:53;102650.28;;;3.87;63.17
5651;BME280;40241;52.684;9.758;2023-11-22T12:10:18;102651.44;;;3.89;62.97
5651;BME280;40241;52.684;9.758;2023-11-22T12:12:44;102615.13;;;3.85;62.99
5651;BME280;40241;52.684;9.758;2023-11-22T12:15:11;102599.53;;;3.82;63.01
5651;BME280;40241;52.684;9.758;2023-11-22T12:17:36;102599.88;;;3.84;62.93
5651;BME280;40241;52.684;9.758;2023-11-22T12:20:15;102604.97;;;3.86;62.85
5651;BME280;40241;52.684;9.758;2023-11-22T12:22:43;102615.84;;;3.89;62.87
5651;BME280;40241;52.684;9.758;2023-11-22T12:25:09;102617.78;;;3.89;62.68
5651;BME280;40241;52.684;9.758;2023-11-22T12:27:38;102613.53;;;3.88;62.70
5651;BME280;40241;52.684;9.758;2023-11-22T12:30:04;102589.13;;;3.93;62.71
5651;BME280;40241;52.684;9.758;2023-11-22T12:32:31;102593.78;;;3.96;62.85
5651;BME280;40241;52.684;9.758;2023-11-22T12:34:56;102598.00;;;4.01;62.75
5651;BME280;40241;52.684;9.758;2023-11-22T12:37:22;102605.44;;;4.00;62.93
5651;BME280;40241;52.684;9.758;2023-11-22T12:39:48;102623.00;;;4.03;62.61
5651;BME280;40241;52.684;9.758;2023-11-22T12:42:13;102646.03;;;4.05;62.91
5651;BME280;40241;52.684;9.758;2023-11-22T12:44:49;102644.72;;;4.10;62.46
5651;BME280;40241;52.684;9.758;2023-11-22T12:47:14;102616.25;;;4.07;62.86
5651;BME280;40241;52.684;9.758;2023-11-22T12:49:44;102609.56;;;4.08;62.56
5651;BME280;40241;52.684;9.758;2023-11-22T12:52:14;102593.97;;;4.05;62.56
5651;BME280;40241;52.684;9.758;2023-11-22T12:54:40;102587.72;;;4.05;62.67
5651;BME280;40241;52.684;9.758;2023-11-22T12:57:10;102583.88;;;4.02;62.20
5651;BME280;40241;52.684;9.758;2023-11-22T12:59:38;102586.75;;;3.95;62.38
5651;BME280;40241;52.684;9.758;2023-11-22T13:02:05;102571.19;;;3.92;62.24
5651;BME280;40241;52.684;9.758;2023-11-22T13:04:32;102571.59;;;3.91;62.75
5651;BME280;40241;52.684;9.758;2023-11-22T13:06:58;102571.59;;;3.91;62.54
5651;BME280;40241;52.684;9.758;2023-11-22T13:09:25;102571.94;;;3.93;62.55